Strona główna
METAR-TAF:

METAR-TAF

Lotnisko :

Lotnisko Ronaldsway

Wyspa Man,

Szerokość geograficzna: 54-05N, Długość geograficzna: 004-38W, wysokość: 17 m

Aktualna obserwacja pogody

Raport powstał 25 minut temu, godzina 20:20 UTC
Wiatr 7 kt od północno-północny wschód
Temperatura 17°C
Wilgotność 77%
Ciśnienie 1031 hPa
Widzialność 10 km lub więcej
Brak chmur poniżej 1500 m i brak chmur cumulonimbus

METAR: EGNS 262020Z 02007KT CAVOK 17/13 Q1031 NOSIG

czas: 21:45 (20:45 UTC)

Prognoza

Raport powstał 3 godziny i 45 minut temu, godzina 17:00 UTC
Prognoza ważna od 26 godzina 18 UTC do 26 godzina 21 UTC
Wiatr 6 kt od północny wschód
Widzialność 10 km lub więcej
Mało chmury na wysokości 3000 ft

TAF: EGNS 261700Z 2618/2621 04006KT 9999 FEW030

Obserwacja i prognoza pogody dla ponad 4000 lotnisk (raport METAR i TAF).

Dostępne stacje oznaczono żółtymi i czerwonymi punktami na mapie.

Najedź kursorem aby zobaczyć nazwę stacji.

Kliknij aby zobaczyć obserwacje i prognozy pogody.

Aby zmienić mapę: kliknij na zielony przycisk z czarnym krzyżykiem, aby powiększyć; na zielony przycisk z myślnikiem, aby pomniejszyć; na zielone strzałki, aby przejść do map sąsiednich.


METAR-TAF: